Time;durP1;ratioP1;P1;durP2;ratioP2;P2;SDS_P1;SDS_P2;PMS_P1;PMS_P2;Temp;Humidity;BMP_temperature;BMP_pressure;BME280_temperature;BME280_humidity;BME280_pressure;Samples;Min_cycle;Max_cycle;Signal;HPM_P1;HPM_P2
2023/03/25 00:00:17;;;;;;;5.53;2.10;;;;;;;;;;5053867;28;20176;-77
2023/03/25 00:02:54;;;;;;;4.73;2.47;;;;;;;;;;5038260;28;20253;-78
2023/03/25 00:05:21;;;;;;;5.60;2.20;;;;;;;;;;5054640;28;20175;-77
2023/03/25 00:07:49;;;;;;;6.63;2.10;;;;;;;;;;5053509;28;20191;-77
2023/03/25 00:10:15;;;;;;;6.23;2.27;;;;;;;;;;5054598;28;20274;-77
2023/03/25 00:12:41;;;;;;;5.63;2.00;;;;;;;;;;5036911;28;20285;-83
2023/03/25 00:15:08;;;;;;;6.37;1.90;;;;;;;;;;5054722;28;20172;-83
2023/03/25 00:17:35;;;;;;;7.33;2.30;;;;;;;;;;5050823;28;20211;-83
2023/03/25 00:20:04;;;;;;;7.50;2.20;;;;;;;;;;5048982;28;20231;-83
2023/03/25 00:22:30;;;;;;;10.27;2.30;;;;;;;;;;5043052;28;20179;-83
2023/03/25 00:24:56;;;;;;;7.10;1.93;;;;;;;;;;5036906;28;20187;-83
2023/03/25 00:27:22;;;;;;;7.50;2.30;;;;;;;;;;5053008;28;20186;-83
2023/03/25 00:29:48;;;;;;;5.40;2.10;;;;;;;;;;5049324;28;20206;-77
2023/03/25 00:32:16;;;;;;;4.83;1.93;;;;;;;;;;5051729;28;20199;-78
2023/03/25 00:34:46;;;;;;;6.57;1.90;;;;;;;;;;5036241;28;20181;-77
2023/03/25 00:37:16;;;;;;;7.97;2.17;;;;;;;;;;5034079;28;20177;-77
2023/03/25 00:39:42;;;;;;;6.30;2.13;;;;;;;;;;5037641;28;20184;-77
2023/03/25 00:42:10;;;;;;;7.27;2.20;;;;;;;;;;5028775;28;20184;-77
2023/03/25 00:44:36;;;;;;;7.07;2.43;;;;;;;;;;5022587;28;20272;-77
2023/03/25 00:47:02;;;;;;;7.83;2.30;;;;;;;;;;5011775;28;20275;-80
2023/03/25 00:49:28;;;;;;;7.27;2.63;;;;;;;;;;5020467;28;20321;-79
2023/03/25 00:51:55;;;;;;;4.97;2.50;;;;;;;;;;5036262;28;20192;-80
2023/03/25 00:54:21;;;;;;;9.23;2.60;;;;;;;;;;5036062;28;20195;-80
2023/03/25 00:56:48;;;;;;;11.30;2.63;;;;;;;;;;5036341;28;20183;-80
2023/03/25 00:59:14;;;;;;;9.03;2.80;;;;;;;;;;5053499;28;20295;-78
2023/03/25 01:01:42;;;;;;;7.73;2.50;;;;;;;;;;5054817;28;20180;-78
2023/03/25 01:04:11;;;;;;;6.60;2.37;;;;;;;;;;5055950;28;20240;-83
2023/03/25 01:06:45;;;;;;;6.03;2.43;;;;;;;;;;5042958;28;20215;-84
2023/03/25 01:09:13;;;;;;;7.53;2.93;;;;;;;;;;5036276;28;20192;-83
2023/03/25 01:11:39;;;;;;;9.07;2.90;;;;;;;;;;5036170;28;20188;-78
2023/03/25 01:14:08;;;;;;;8.03;2.87;;;;;;;;;;5034935;28;20195;-77
2023/03/25 01:16:34;;;;;;;8.60;2.70;;;;;;;;;;5051968;28;20226;-77
2023/03/25 01:19:00;;;;;;;12.17;2.90;;;;;;;;;;5052549;28;20258;-80
2023/03/25 01:21:26;;;;;;;8.97;2.40;;;;;;;;;;5036411;28;20204;-83
2023/03/25 01:23:52;;;;;;;8.60;3.00;;;;;;;;;;5053401;28;20239;-84
2023/03/25 01:26:19;;;;;;;11.50;3.17;;;;;;;;;;5053129;28;20225;-83
2023/03/25 01:28:45;;;;;;;10.17;2.57;;;;;;;;;;5035697;28;20199;-84
2023/03/25 01:31:12;;;;;;;12.37;2.90;;;;;;;;;;5036288;28;20192;-77
2023/03/25 01:33:39;;;;;;;11.23;2.57;;;;;;;;;;5052604;28;20219;-77
2023/03/25 01:36:08;;;;;;;8.77;2.80;;;;;;;;;;5043398;28;20189;-83
2023/03/25 01:38:38;;;;;;;7.73;3.00;;;;;;;;;;5042423;28;20216;-83
2023/03/25 01:41:05;;;;;;;10.03;2.43;;;;;;;;;;5032961;28;20173;-83
2023/03/25 01:43:32;;;;;;;8.43;2.80;;;;;;;;;;5048260;28;20234;-83
2023/03/25 01:45:58;;;;;;;8.87;2.80;;;;;;;;;;5046031;28;20192;-80
2023/03/25 01:48:24;;;;;;;11.87;2.63;;;;;;;;;;5053716;28;20342;-77
2023/03/25 01:51:01;;;;;;;10.97;2.73;;;;;;;;;;5053492;28;20228;-77
2023/03/25 01:53:29;;;;;;;9.67;2.83;;;;;;;;;;5052614;28;20179;-79
2023/03/25 01:55:55;;;;;;;9.27;3.00;;;;;;;;;;5053606;28;20180;-80
2023/03/25 01:58:23;;;;;;;11.53;3.13;;;;;;;;;;5036387;28;20211;-80
2023/03/25 02:00:50;;;;;;;9.87;2.70;;;;;;;;;;5040529;28;20195;-80
2023/03/25 02:03:17;;;;;;;8.07;2.80;;;;;;;;;;5016007;28;20191;-80
2023/03/25 02:05:59;;;;;;;10.87;2.33;;;;;;;;;;5029306;28;20187;-80
2023/03/25 02:08:25;;;;;;;9.67;2.50;;;;;;;;;;5039468;28;20207;-80
2023/03/25 02:10:52;;;;;;;8.83;2.90;;;;;;;;;;5039619;28;20267;-84
2023/03/25 02:13:19;;;;;;;11.43;2.57;;;;;;;;;;5023353;28;20188;-83
2023/03/25 02:16:00;;;;;;;6.53;2.40;;;;;;;;;;5039721;28;20184;-83
2023/03/25 02:18:36;;;;;;;11.97;3.10;;;;;;;;;;5039844;28;20241;-83
2023/03/25 02:21:22;;;;;;;9.97;2.67;;;;;;;;;;5039812;28;20180;-83
2023/03/25 02:24:07;;;;;;;9.40;2.83;;;;;;;;;;5028950;28;20184;-83
2023/03/25 02:26:35;;;;;;;8.60;3.17;;;;;;;;;;5056975;28;20255;-77
2023/03/25 02:29:01;;;;;;;8.93;2.67;;;;;;;;;;5039584;28;20183;-78
2023/03/25 02:31:47;;;;;;;10.63;3.30;;;;;;;;;;5039312;28;20180;-78
2023/03/25 02:34:13;;;;;;;8.73;3.00;;;;;;;;;;5039062;28;20179;-77
2023/03/25 02:36:39;;;;;;;10.37;2.73;;;;;;;;;;5038954;28;20187;-77
2023/03/25 02:39:05;;;;;;;9.87;3.30;;;;;;;;;;5055728;28;20235;-77
2023/03/25 02:41:39;;;;;;;7.70;3.00;;;;;;;;;;5055577;28;20176;-79
2023/03/25 02:44:17;;;;;;;8.93;3.20;;;;;;;;;;5055879;28;20172;-78
2023/03/25 02:46:53;;;;;;;7.60;2.70;;;;;;;;;;5055389;28;20175;-77
2023/03/25 02:49:33;;;;;;;8.73;3.37;;;;;;;;;;5038895;28;20270;-77
2023/03/25 02:52:01;;;;;;;8.63;3.10;;;;;;;;;;5055232;28;20184;-77
2023/03/25 02:54:28;;;;;;;6.80;2.77;;;;;;;;;;5056379;28;20172;-77
2023/03/25 02:56:56;;;;;;;10.67;2.93;;;;;;;;;;5056350;28;20172;-78
2023/03/25 02:59:24;;;;;;;7.53;2.70;;;;;;;;;;5055034;28;20209;-77
2023/03/25 03:01:57;;;;;;;8.47;2.80;;;;;;;;;;5055303;28;20314;-77
2023/03/25 03:04:23;;;;;;;7.57;3.03;;;;;;;;;;5038890;28;20259;-77
2023/03/25 03:06:49;;;;;;;5.80;2.73;;;;;;;;;;5022034;28;20180;-77
2023/03/25 03:09:31;;;;;;;7.90;2.77;;;;;;;;;;5022422;28;20260;-78
2023/03/25 03:12:02;;;;;;;8.20;2.80;;;;;;;;;;5054881;28;20184;-77
2023/03/25 03:14:28;;;;;;;9.43;3.00;;;;;;;;;;5054804;28;20184;-77
2023/03/25 03:17:02;;;;;;;5.03;2.33;;;;;;;;;;5053856;28;20176;-78
2023/03/25 03:19:30;;;;;;;6.90;2.80;;;;;;;;;;5055913;28;20200;-83
2023/03/25 03:21:56;;;;;;;6.27;2.97;;;;;;;;;;5054875;28;20175;-83
2023/03/25 03:24:22;;;;;;;9.07;3.23;;;;;;;;;;5054593;28;20175;-83
2023/03/25 03:26:52;;;;;;;8.77;2.90;;;;;;;;;;5054800;28;20184;-83
2023/03/25 03:29:31;;;;;;;8.67;3.00;;;;;;;;;;5054964;28;20184;-83
2023/03/25 03:32:01;;;;;;;7.67;2.93;;;;;;;;;;5054696;28;20184;-83
2023/03/25 03:34:33;;;;;;;8.37;3.07;;;;;;;;;;5055634;28;20182;-77
2023/03/25 03:37:00;;;;;;;7.60;3.30;;;;;;;;;;5055601;28;20176;-77
2023/03/25 03:39:30;;;;;;;6.70;2.80;;;;;;;;;;5054378;28;20269;-77
2023/03/25 03:42:00;;;;;;;9.07;3.17;;;;;;;;;;5055478;28;20206;-77
2023/03/25 03:44:28;;;;;;;7.83;3.40;;;;;;;;;;5037672;28;20237;-77
2023/03/25 03:46:57;;;;;;;8.17;3.50;;;;;;;;;;5037646;28;20266;-77
2023/03/25 03:49:27;;;;;;;12.63;4.10;;;;;;;;;;5055349;28;20226;-77
2023/03/25 03:51:56;;;;;;;9.93;3.60;;;;;;;;;;5037495;28;20172;-77
2023/03/25 03:54:24;;;;;;;5.63;3.33;;;;;;;;;;5054029;28;20184;-78
2023/03/25 03:57:07;;;;;;;10.77;3.70;;;;;;;;;;5054953;28;20179;-77
2023/03/25 03:59:46;;;;;;;8.67;3.60;;;;;;;;;;5037392;28;20353;-77
2023/03/25 04:02:37;;;;;;;10.17;3.40;;;;;;;;;;5055116;28;20175;-77
2023/03/25 04:05:03;;;;;;;9.10;3.70;;;;;;;;;;5055150;28;20172;-77
2023/03/25 04:07:37;;;;;;;9.60;3.37;;;;;;;;;;5037465;28;20203;-77
2023/03/25 04:10:13;;;;;;;10.57;3.60;;;;;;;;;;5037206;28;20180;-78
2023/03/25 04:12:40;;;;;;;9.93;3.40;;;;;;;;;;5037137;28;20176;-77
2023/03/25 04:15:07;;;;;;;5.33;3.30;;;;;;;;;;5037120;28;20175;-77
2023/03/25 04:17:33;;;;;;;12.23;3.30;;;;;;;;;;5037358;28;20180;-77
2023/03/25 04:20:00;;;;;;;8.80;3.17;;;;;;;;;;5036936;28;20180;-77
2023/03/25 04:22:26;;;;;;;8.30;3.33;;;;;;;;;;5037327;28;20172;-77
2023/03/25 04:24:53;;;;;;;10.17;3.40;;;;;;;;;;5037336;28;20188;-77
2023/03/25 04:27:21;;;;;;;9.07;3.63;;;;;;;;;;5020832;28;20184;-77
2023/03/25 04:29:48;;;;;;;7.10;3.53;;;;;;;;;;5020674;28;20184;-77
2023/03/25 04:32:15;;;;;;;9.67;3.43;;;;;;;;;;5020197;28;20196;-77
2023/03/25 04:34:41;;;;;;;12.63;3.73;;;;;;;;;;5036706;28;20225;-77
2023/03/25 04:37:07;;;;;;;9.93;3.13;;;;;;;;;;5036712;28;20191;-77
2023/03/25 04:39:33;;;;;;;8.63;3.30;;;;;;;;;;5036509;28;20212;-83
2023/03/25 04:42:02;;;;;;;10.10;3.27;;;;;;;;;;5020290;28;20180;-83
2023/03/25 04:44:32;;;;;;;7.70;3.37;;;;;;;;;;5036481;28;20284;-83
2023/03/25 04:46:58;;;;;;;11.83;3.80;;;;;;;;;;5044280;28;20176;-82
2023/03/25 04:49:25;;;;;;;15.00;3.90;;;;;;;;;;5044440;28;20231;-82
2023/03/25 04:51:52;;;;;;;13.83;4.23;;;;;;;;;;5044694;28;20196;-83
2023/03/25 04:54:19;;;;;;;13.17;3.93;;;;;;;;;;5053571;28;20209;-83
2023/03/25 04:56:46;;;;;;;10.97;3.47;;;;;;;;;;5044197;28;20267;-83
2023/03/25 04:59:12;;;;;;;10.17;3.67;;;;;;;;;;5019734;28;20257;-77
2023/03/25 05:01:41;;;;;;;10.47;3.67;;;;;;;;;;5044625;28;20195;-76
2023/03/25 05:04:07;;;;;;;10.33;3.17;;;;;;;;;;5044061;28;20179;-77
2023/03/25 05:06:37;;;;;;;12.67;3.53;;;;;;;;;;5044378;28;20229;-77
2023/03/25 05:09:04;;;;;;;13.13;3.47;;;;;;;;;;5044051;28;20238;-82
2023/03/25 05:11:31;;;;;;;12.40;3.03;;;;;;;;;;5053480;28;20199;-83
2023/03/25 05:13:57;;;;;;;10.07;3.10;;;;;;;;;;5053523;28;20175;-77
2023/03/25 05:16:24;;;;;;;13.23;3.30;;;;;;;;;;5035849;28;20192;-77
2023/03/25 05:18:50;;;;;;;9.97;3.00;;;;;;;;;;5017125;28;20254;-77
2023/03/25 05:21:16;;;;;;;8.97;3.00;;;;;;;;;;5035791;28;20188;-77
2023/03/25 05:23:42;;;;;;;10.43;3.20;;;;;;;;;;5043872;28;20241;-77
2023/03/25 05:26:13;;;;;;;12.00;3.23;;;;;;;;;;5019338;28;20179;-77
2023/03/25 05:28:39;;;;;;;8.87;3.17;;;;;;;;;;5044001;28;20171;-77
2023/03/25 05:31:09;;;;;;;9.07;2.80;;;;;;;;;;5019140;28;20180;-77
2023/03/25 05:33:36;;;;;;;9.07;3.20;;;;;;;;;;5043724;28;20172;-77
2023/03/25 05:36:03;;;;;;;8.57;3.10;;;;;;;;;;5018186;28;20184;-76
2023/03/25 05:38:29;;;;;;;8.30;3.33;;;;;;;;;;5013893;28;20208;-77
2023/03/25 05:40:55;;;;;;;9.30;3.23;;;;;;;;;;5020999;28;20218;-77
2023/03/25 05:43:21;;;;;;;11.53;3.17;;;;;;;;;;5056622;28;20183;-77
2023/03/25 05:45:48;;;;;;;9.33;3.53;;;;;;;;;;5020537;28;20177;-77
2023/03/25 05:48:14;;;;;;;9.80;2.90;;;;;;;;;;5023732;28;20226;-83
2023/03/25 05:50:49;;;;;;;7.40;3.27;;;;;;;;;;5023293;28;20240;-80
2023/03/25 05:53:15;;;;;;;10.13;2.97;;;;;;;;;;5040920;28;20184;-80
2023/03/25 05:55:41;;;;;;;7.30;3.13;;;;;;;;;;5023525;28;20255;-80
2023/03/25 05:58:08;;;;;;;7.87;3.33;;;;;;;;;;5039742;28;20268;-80
2023/03/25 06:00:34;;;;;;;7.60;3.30;;;;;;;;;;5039766;28;20205;-80
2023/03/25 06:03:00;;;;;;;7.33;3.20;;;;;;;;;;5039847;28;20275;-80
2023/03/25 06:05:28;;;;;;;8.63;3.50;;;;;;;;;;5039795;28;20184;-80
2023/03/25 06:07:55;;;;;;;7.37;3.07;;;;;;;;;;5053695;28;20255;-80
2023/03/25 06:10:21;;;;;;;9.43;3.40;;;;;;;;;;5050596;28;20194;-80
2023/03/25 06:12:48;;;;;;;10.50;3.40;;;;;;;;;;5044176;28;20182;-80
2023/03/25 06:15:37;;;;;;;11.30;3.77;;;;;;;;;;5046351;28;20283;-80
2023/03/25 06:18:03;;;;;;;11.17;3.57;;;;;;;;;;5048430;28;20230;-80
2023/03/25 06:20:29;;;;;;;9.60;4.03;;;;;;;;;;5022369;28;20180;-84
2023/03/25 06:22:55;;;;;;;7.07;3.57;;;;;;;;;;5045439;28;20443;-84
2023/03/25 06:25:22;;;;;;;9.70;3.77;;;;;;;;;;5047136;28;20180;-84
2023/03/25 06:27:49;;;;;;;9.20;4.03;;;;;;;;;;5043991;28;20204;-83
2023/03/25 06:30:19;;;;;;;12.27;3.93;;;;;;;;;;5044016;28;20181;-84
2023/03/25 06:32:49;;;;;;;11.57;5.00;;;;;;;;;;5044856;28;20171;-83
2023/03/25 06:35:18;;;;;;;11.60;4.30;;;;;;;;;;5046877;28;20180;-84
2023/03/25 06:37:45;;;;;;;12.53;4.40;;;;;;;;;;5022146;28;20195;-78
2023/03/25 06:40:11;;;;;;;11.97;4.63;;;;;;;;;;5046930;28;20176;-77
2023/03/25 06:42:37;;;;;;;14.27;4.80;;;;;;;;;;5049212;28;20198;-77
2023/03/25 06:45:04;;;;;;;11.23;4.23;;;;;;;;;;5021604;28;20180;-78
2023/03/25 06:47:30;;;;;;;14.10;4.63;;;;;;;;;;5021191;28;20190;-77
2023/03/25 06:49:56;;;;;;;14.03;4.57;;;;;;;;;;5019312;28;20228;-77
2023/03/25 06:52:22;;;;;;;13.40;4.47;;;;;;;;;;5046078;28;20180;-77
2023/03/25 06:54:48;;;;;;;17.57;4.53;;;;;;;;;;5018159;28;20231;-83
2023/03/25 06:57:15;;;;;;;11.47;4.37;;;;;;;;;;5032187;28;20226;-78
2023/03/25 06:59:41;;;;;;;12.50;3.87;;;;;;;;;;5055594;28;20199;-78
2023/03/25 07:02:07;;;;;;;14.03;4.53;;;;;;;;;;5021595;28;20176;-77
2023/03/25 07:04:33;;;;;;;11.83;3.83;;;;;;;;;;5039590;28;20184;-78
2023/03/25 07:06:59;;;;;;;14.47;4.67;;;;;;;;;;5019133;28;20230;-78
2023/03/25 07:09:26;;;;;;;14.17;4.20;;;;;;;;;;5025792;28;20279;-80
2023/03/25 07:11:51;;;;;;;10.27;3.67;;;;;;;;;;5021189;28;20294;-80
2023/03/25 07:14:17;;;;;;;15.63;4.33;;;;;;;;;;5037240;28;20267;-78
2023/03/25 07:16:44;;;;;;;10.93;3.87;;;;;;;;;;5044696;28;20222;-77
2023/03/25 07:19:10;;;;;;;17.33;4.50;;;;;;;;;;5034688;28;20223;-77
2023/03/25 07:21:36;;;;;;;14.83;4.10;;;;;;;;;;5051313;28;20192;-78
2023/03/25 07:24:02;;;;;;;10.87;3.97;;;;;;;;;;5025180;28;20267;-80
2023/03/25 07:26:28;;;;;;;12.87;3.80;;;;;;;;;;5032614;28;20196;-77
2023/03/25 07:28:54;;;;;;;15.10;4.17;;;;;;;;;;5059182;28;20187;-77
2023/03/25 07:31:20;;;;;;;15.67;3.97;;;;;;;;;;5037260;28;20212;-78
2023/03/25 07:33:46;;;;;;;13.37;3.97;;;;;;;;;;5037782;28;20282;-78
2023/03/25 07:36:13;;;;;;;11.53;4.37;;;;;;;;;;5020391;28;20189;-79
2023/03/25 07:38:39;;;;;;;15.40;4.53;;;;;;;;;;5021589;28;20262;-80
2023/03/25 07:41:10;;;;;;;16.50;4.43;;;;;;;;;;5021185;28;20172;-80
2023/03/25 07:43:36;;;;;;;17.80;4.50;;;;;;;;;;5037383;28;20172;-78
2023/03/25 07:46:02;;;;;;;15.30;4.70;;;;;;;;;;5054445;28;20267;-78
2023/03/25 07:48:28;;;;;;;14.97;4.67;;;;;;;;;;5053102;28;20186;-78
2023/03/25 07:50:54;;;;;;;15.07;5.37;;;;;;;;;;5020416;28;20314;-78
2023/03/25 07:53:21;;;;;;;15.67;4.93;;;;;;;;;;5037124;28;20187;-78
2023/03/25 07:55:49;;;;;;;17.37;4.60;;;;;;;;;;5055506;28;20204;-78
2023/03/25 07:58:16;;;;;;;15.10;4.70;;;;;;;;;;5037559;28;20211;-78
2023/03/25 08:00:42;;;;;;;14.67;5.07;;;;;;;;;;5037526;28;20192;-80
2023/03/25 08:03:10;;;;;;;16.47;4.93;;;;;;;;;;5033343;22;20326;-82
2023/03/25 08:05:36;;;;;;;12.23;4.63;;;;;;;;;;5037149;28;20180;-83
2023/03/25 08:08:04;;;;;;;13.33;4.30;;;;;;;;;;5020784;28;20184;-83
2023/03/25 08:10:30;;;;;;;14.67;4.50;;;;;;;;;;5054598;28;20176;-82
2023/03/25 08:12:56;;;;;;;13.43;4.33;;;;;;;;;;5037011;28;20198;-82
2023/03/25 08:15:23;;;;;;;14.77;4.30;;;;;;;;;;5036944;28;20211;-82
2023/03/25 08:17:53;;;;;;;13.03;4.57;;;;;;;;;;5036866;28;20222;-80
2023/03/25 08:20:19;;;;;;;15.23;4.77;;;;;;;;;;5036882;28;20207;-80
2023/03/25 08:22:45;;;;;;;14.03;4.93;;;;;;;;;;5037054;28;20176;-79
2023/03/25 08:25:12;;;;;;;17.47;5.60;;;;;;;;;;5037379;28;20176;-80
2023/03/25 08:27:39;;;;;;;19.90;5.93;;;;;;;;;;5028506;28;20176;-80
2023/03/25 08:30:06;;;;;;;18.07;5.23;;;;;;;;;;5034292;28;20211;-79
2023/03/25 08:32:35;;;;;;;14.73;5.00;;;;;;;;;;5019967;28;20171;-80
2023/03/25 08:35:04;;;;;;;17.50;4.93;;;;;;;;;;5033444;28;20238;-83
2023/03/25 08:37:34;;;;;;;16.57;4.83;;;;;;;;;;5032967;28;20268;-83
2023/03/25 08:40:00;;;;;;;20.53;5.07;;;;;;;;;;5034321;28;20177;-83
2023/03/25 08:42:26;;;;;;;17.87;4.60;;;;;;;;;;5033077;28;20223;-83
2023/03/25 08:44:52;;;;;;;18.50;3.97;;;;;;;;;;5032292;28;20223;-85
2023/03/25 08:47:18;;;;;;;20.30;4.93;;;;;;;;;;5031911;28;20184;-83
2023/03/25 08:49:44;;;;;;;15.67;4.03;;;;;;;;;;5033041;28;20181;-82
2023/03/25 08:52:10;;;;;;;16.47;4.40;;;;;;;;;;5032152;28;20176;-81
2023/03/25 08:54:36;;;;;;;19.27;4.53;;;;;;;;;;5032333;28;20184;-81
2023/03/25 08:57:02;;;;;;;17.00;4.47;;;;;;;;;;5033050;28;20184;-83
2023/03/25 08:59:28;;;;;;;16.70;4.13;;;;;;;;;;5032642;28;20219;-82
2023/03/25 09:01:55;;;;;;;12.43;3.67;;;;;;;;;;5033007;28;20180;-82
2023/03/25 09:04:21;;;;;;;15.00;4.30;;;;;;;;;;5032761;28;20240;-82
2023/03/25 09:06:48;;;;;;;14.73;4.23;;;;;;;;;;5032902;28;20223;-84
2023/03/25 09:09:14;;;;;;;16.47;4.43;;;;;;;;;;5033049;28;20187;-82
2023/03/25 09:11:40;;;;;;;17.00;4.37;;;;;;;;;;5032870;28;20184;-82
2023/03/25 09:14:06;;;;;;;16.33;5.10;;;;;;;;;;5032844;28;20191;-82
2023/03/25 09:16:33;;;;;;;16.07;4.80;;;;;;;;;;5032071;28;20194;-83
2023/03/25 09:18:59;;;;;;;20.15;5.35;;;;;;;;;;5032309;28;20467;-82
2023/03/25 09:21:25;;;;;;;16.40;4.47;;;;;;;;;;5033047;28;20180;-82
2023/03/25 09:23:51;;;;;;;19.63;4.53;;;;;;;;;;5033876;28;20176;-81
2023/03/25 09:26:17;;;;;;;16.80;4.67;;;;;;;;;;5032798;28;20172;-84
2023/03/25 09:28:43;;;;;;;20.17;4.00;;;;;;;;;;5032986;28;20183;-84
2023/03/25 09:31:09;;;;;;;15.00;4.13;;;;;;;;;;5032529;28;20193;-84
2023/03/25 09:33:36;;;;;;;16.47;4.03;;;;;;;;;;5032627;28;20275;-84
2023/03/25 09:36:02;;;;;;;17.23;4.60;;;;;;;;;;5032676;28;20188;-84
2023/03/25 09:38:29;;;;;;;15.53;4.13;;;;;;;;;;5032585;28;20204;-85
2023/03/25 09:40:55;;;;;;;14.70;4.13;;;;;;;;;;5033819;28;20196;-92
2023/03/25 09:43:48;;;;;;;15.80;4.60;;;;;;;;;;5032742;28;20264;-91
2023/03/25 09:46:14;;;;;;;13.93;4.93;;;;;;;;;;5032684;28;20180;-91
2023/03/25 09:48:45;;;;;;;14.70;4.57;;;;;;;;;;5032923;28;20191;-92
2023/03/25 09:51:32;;;;;;;21.57;5.20;;;;;;;;;;5035202;28;20184;-92
2023/03/25 09:54:12;;;;;;;17.50;4.70;;;;;;;;;;5035484;28;20242;-83
2023/03/25 09:56:40;;;;;;;16.83;4.80;;;;;;;;;;5032647;28;20180;-81
2023/03/25 09:59:10;;;;;;;21.13;4.70;;;;;;;;;;5033531;28;20232;-81
2023/03/25 10:01:59;;;;;;;15.00;4.50;;;;;;;;;;5032692;28;20223;-81
2023/03/25 10:04:51;;;;;;;15.47;4.23;;;;;;;;;;5032309;28;20229;-81
2023/03/25 10:07:23;;;;;;;17.00;4.20;;;;;;;;;;5017796;28;20200;-81
2023/03/25 10:09:52;;;;;;;20.80;4.33;;;;;;;;;;5032197;28;20181;-81
2023/03/25 10:12:21;;;;;;;14.17;3.87;;;;;;;;;;5032314;28;20188;-81
2023/03/25 10:14:47;;;;;;;16.97;4.23;;;;;;;;;;5033037;28;20247;-92
2023/03/25 10:17:36;;;;;;;14.73;4.20;;;;;;;;;;5033065;28;20188;-92
2023/03/25 10:20:18;;;;;;;13.90;3.80;;;;;;;;;;5027712;28;20264;-92
2023/03/25 10:22:44;;;;;;;13.57;3.70;;;;;;;;;;5032712;28;20268;-85
2023/03/25 10:25:15;;;;;;;16.77;4.17;;;;;;;;;;5032163;28;20270;-84
2023/03/25 10:27:46;;;;;;;16.80;4.00;;;;;;;;;;5034783;28;20236;-85
2023/03/25 10:30:15;;;;;;;13.50;3.93;;;;;;;;;;5039899;28;20195;-93
2023/03/25 10:33:01;;;;;;;17.47;4.10;;;;;;;;;;5040525;28;20240;-92
2023/03/25 10:35:29;;;;;;;17.80;4.47;;;;;;;;;;5037746;28;20204;-92
2023/03/25 10:37:58;;;;;;;15.73;4.40;;;;;;;;;;5035947;28;20208;-83
2023/03/25 10:40:28;;;;;;;17.33;4.10;;;;;;;;;;5036632;28;20177;-83
2023/03/25 10:42:57;;;;;;;14.63;4.10;;;;;;;;;;5035316;28;20259;-83
2023/03/25 10:45:24;;;;;;;16.37;4.40;;;;;;;;;;5035555;28;20238;-83
2023/03/25 10:47:51;;;;;;;21.73;4.90;;;;;;;;;;5039965;28;20175;-91
2023/03/25 10:50:19;;;;;;;21.47;4.80;;;;;;;;;;5037376;28;20177;-92
2023/03/25 10:52:47;;;;;;;21.73;4.40;;;;;;;;;;5037528;28;20180;-91
2023/03/25 10:55:21;;;;;;;25.30;5.27;;;;;;;;;;5036406;28;20183;-91
2023/03/25 10:57:47;;;;;;;20.67;4.93;;;;;;;;;;5037332;28;20169;-91
2023/03/25 11:00:18;;;;;;;16.97;4.13;;;;;;;;;;5036203;28;20181;-92
2023/03/25 11:02:45;;;;;;;15.93;3.60;;;;;;;;;;5036005;28;20203;-83
2023/03/25 11:05:14;;;;;;;16.33;3.63;;;;;;;;;;5034706;28;20310;-83
2023/03/25 11:07:42;;;;;;;15.67;4.13;;;;;;;;;;5034915;28;20184;-83
2023/03/25 11:10:10;;;;;;;19.90;4.47;;;;;;;;;;5034949;28;20177;-83
2023/03/25 11:12:37;;;;;;;23.63;5.00;;;;;;;;;;5034847;28;20180;-82
2023/03/25 11:15:04;;;;;;;20.70;5.07;;;;;;;;;;5034768;28;20211;-83
2023/03/25 11:17:32;;;;;;;22.13;5.10;;;;;;;;;;5034594;28;20173;-81
2023/03/25 11:20:09;;;;;;;19.77;4.53;;;;;;;;;;5034656;28;20216;-85
2023/03/25 11:22:37;;;;;;;15.97;4.50;;;;;;;;;;5034653;28;20192;-85
2023/03/25 11:25:19;;;;;;;25.03;4.37;;;;;;;;;;5035727;28;20177;-85
2023/03/25 11:27:47;;;;;;;18.17;3.80;;;;;;;;;;5035778;28;20207;-85
2023/03/25 11:30:18;;;;;;;17.87;4.37;;;;;;;;;;5034613;28;20181;-85
2023/03/25 11:32:44;;;;;;;17.63;4.33;;;;;;;;;;5034481;28;20184;-85
2023/03/25 11:35:21;;;;;;;22.23;4.70;;;;;;;;;;5034108;28;20187;-85
2023/03/25 11:37:48;;;;;;;14.37;3.77;;;;;;;;;;5033574;28;20271;-85
2023/03/25 11:40:15;;;;;;;23.30;4.87;;;;;;;;;;5034210;28;20183;-85
2023/03/25 11:42:48;;;;;;;18.87;4.33;;;;;;;;;;5034509;28;20180;-85
2023/03/25 11:45:20;;;;;;;19.53;4.30;;;;;;;;;;5035491;28;20165;-85
2023/03/25 11:47:46;;;;;;;21.13;4.30;;;;;;;;;;5034138;28;20172;-84
2023/03/25 11:50:20;;;;;;;18.77;4.23;;;;;;;;;;5034300;28;20169;-85
2023/03/25 11:52:48;;;;;;;16.83;4.43;;;;;;;;;;5035058;28;20168;-81
2023/03/25 11:55:37;;;;;;;14.23;3.60;;;;;;;;;;5034327;28;20181;-81
2023/03/25 11:58:03;;;;;;;12.70;3.20;;;;;;;;;;5028481;28;20235;-81
2023/03/25 12:00:37;;;;;;;16.03;3.50;;;;;;;;;;5033938;28;20258;-81
2023/03/25 12:03:17;;;;;;;13.10;3.10;;;;;;;;;;5033705;28;20181;-81
2023/03/25 12:05:55;;;;;;;13.93;2.77;;;;;;;;;;5033924;28;20184;-81
2023/03/25 12:08:21;;;;;;;12.10;3.00;;;;;;;;;;5033879;28;20248;-81
2023/03/25 12:11:02;;;;;;;13.27;3.03;;;;;;;;;;5034864;28;20215;-83
2023/03/25 12:13:31;;;;;;;12.63;3.10;;;;;;;;;;5033849;28;20199;-83
2023/03/25 12:16:05;;;;;;;14.07;3.23;;;;;;;;;;5033574;28;20183;-83
2023/03/25 12:18:40;;;;;;;14.40;3.43;;;;;;;;;;5033522;28;20212;-83
2023/03/25 12:21:21;;;;;;;13.50;3.30;;;;;;;;;;5033460;28;20184;-84
2023/03/25 12:24:06;;;;;;;15.13;3.23;;;;;;;;;;5033760;28;20179;-83
2023/03/25 12:26:44;;;;;;;14.33;3.60;;;;;;;;;;5033633;28;20183;-83
2023/03/25 12:29:16;;;;;;;15.77;3.57;;;;;;;;;;5034528;28;20184;-83
2023/03/25 12:32:08;;;;;;;17.13;3.50;;;;;;;;;;5041558;28;20263;-83
2023/03/25 12:34:37;;;;;;;12.97;3.40;;;;;;;;;;5035633;28;20199;-83
2023/03/25 12:37:06;;;;;;;13.97;2.80;;;;;;;;;;5036983;28;20176;-83
2023/03/25 12:39:38;;;;;;;16.33;3.50;;;;;;;;;;5036809;28;20215;-83
2023/03/25 12:42:04;;;;;;;12.03;2.87;;;;;;;;;;5036662;28;20176;-83
2023/03/25 12:44:49;;;;;;;14.37;3.50;;;;;;;;;;5036967;28;20176;-84
2023/03/25 12:47:15;;;;;;;10.63;2.87;;;;;;;;;;5036713;28;20251;-84
2023/03/25 12:49:59;;;;;;;16.30;3.37;;;;;;;;;;5036258;28;20184;-84
2023/03/25 12:52:41;;;;;;;13.10;2.90;;;;;;;;;;5036107;28;20186;-84
2023/03/25 12:55:26;;;;;;;11.07;3.00;;;;;;;;;;5036230;28;20281;-85
2023/03/25 12:58:20;;;;;;;9.87;2.37;;;;;;;;;;5036019;28;20184;-85
2023/03/25 13:01:05;;;;;;;8.20;2.10;;;;;;;;;;5036086;28;20203;-84
2023/03/25 13:03:34;;;;;;;9.13;2.17;;;;;;;;;;5035982;28;20266;-85
2023/03/25 13:06:05;;;;;;;4.67;1.30;;;;;;;;;;5034984;28;20283;-84
2023/03/25 13:08:54;;;;;;;5.53;1.70;;;;;;;;;;5033978;28;20180;-84
2023/03/25 13:11:31;;;;;;;10.43;2.67;;;;;;;;;;5035959;28;20200;-84
2023/03/25 13:14:00;;;;;;;5.93;1.90;;;;;;;;;;5035335;28;20214;-84
2023/03/25 13:16:28;;;;;;;7.93;2.40;;;;;;;;;;5036093;28;20221;-84
2023/03/25 13:19:01;;;;;;;10.90;2.37;;;;;;;;;;5029856;28;20207;-83
2023/03/25 13:21:39;;;;;;;12.33;2.30;;;;;;;;;;5032588;28;20177;-84
2023/03/25 13:24:07;;;;;;;9.87;2.80;;;;;;;;;;5032558;28;20180;-84
2023/03/25 13:26:35;;;;;;;13.57;3.00;;;;;;;;;;5032592;28;20176;-84
2023/03/25 13:29:05;;;;;;;16.27;2.73;;;;;;;;;;5035765;28;20192;-84
2023/03/25 13:31:36;;;;;;;12.17;3.10;;;;;;;;;;5016153;28;20180;-84
2023/03/25 13:34:02;;;;;;;17.47;3.50;;;;;;;;;;5016142;28;20181;-84
2023/03/25 13:36:30;;;;;;;13.17;3.37;;;;;;;;;;5016142;28;20924;-83
2023/03/25 13:38:57;;;;;;;14.53;3.33;;;;;;;;;;5025180;28;20289;-83
2023/03/25 13:41:27;;;;;;;15.60;3.63;;;;;;;;;;5034347;28;20218;-83
2023/03/25 13:44:01;;;;;;;15.03;2.63;;;;;;;;;;5035782;28;20560;-83
2023/03/25 13:46:30;;;;;;;11.50;3.00;;;;;;;;;;5037625;28;20412;-92
2023/03/25 13:49:10;;;;;;;17.83;3.88;;;;;;;;;;5035924;28;20439;-92
2023/03/25 13:51:36;;;;;;;17.33;3.50;;;;;;;;;;5036418;28;20176;-83
2023/03/25 13:54:06;;;;;;;13.57;3.77;;;;;;;;;;5019614;28;20180;-83
2023/03/25 13:56:41;;;;;;;15.80;3.23;;;;;;;;;;5035683;28;20200;-83
2023/03/25 13:59:10;;;;;;;11.27;3.20;;;;;;;;;;5034619;28;20498;-83
2023/03/25 14:01:55;;;;;;;18.03;3.13;;;;;;;;;;5035116;28;20176;-83
2023/03/25 14:04:30;;;;;;;10.37;2.80;;;;;;;;;;5036471;28;20220;-83
2023/03/25 14:06:56;;;;;;;12.33;3.27;;;;;;;;;;5039472;28;20167;-83
2023/03/25 14:09:28;;;;;;;12.57;3.92;;;;;;;;;;5030999;28;20458;-83
2023/03/25 14:11:54;;;;;;;11.33;3.33;;;;;;;;;;5037763;28;20271;-83
2023/03/25 14:14:22;;;;;;;13.30;3.37;;;;;;;;;;5037339;28;20213;-84
2023/03/25 14:16:57;;;;;;;13.93;3.70;;;;;;;;;;5036388;28;20418;-83
2023/03/25 14:19:54;;;;;;;11.30;3.43;;;;;;;;;;5053824;28;20217;-84
2023/03/25 14:22:21;;;;;;;13.67;3.03;;;;;;;;;;5028270;28;20203;-84
2023/03/25 14:24:48;;;;;;;11.13;2.70;;;;;;;;;;5037642;28;20180;-91
2023/03/25 14:27:21;;;;;;;8.27;2.60;;;;;;;;;;5022509;28;20184;-92
2023/03/25 14:30:01;;;;;;;8.13;2.50;;;;;;;;;;5039270;28;20180;-92
2023/03/25 14:32:31;;;;;;;14.13;2.70;;;;;;;;;;5039312;28;20179;-92
2023/03/25 14:35:17;;;;;;;8.07;2.83;;;;;;;;;;5039297;28;20233;-92
2023/03/25 14:37:43;;;;;;;9.33;2.57;;;;;;;;;;5039256;28;20180;-93
2023/03/25 14:40:27;;;;;;;7.60;2.40;;;;;;;;;;5022678;28;20215;-92
2023/03/25 14:42:58;;;;;;;11.10;3.00;;;;;;;;;;5038892;28;20179;-92
2023/03/25 14:45:34;;;;;;;9.43;2.53;;;;;;;;;;5038975;28;20207;-92
2023/03/25 14:48:00;;;;;;;8.63;2.00;;;;;;;;;;5038962;28;20172;-92